Flight Track Log - Related Links

Times and Time Zones

All times are in EST time to prevent confusion due to time zone crossing. See the UAL4583 flight status page for this flight to view local times or setup timezone preferences in your user account.

Time Position Orientation Groundspeed Altitude Reporting Facility
EST Latitude Longitude Course Direction KTS MPH feet Rate Location/Type
Wed 05:35:57 PM 40.7167 -74.1500 30° Northeast 175 201 1,700  Level New York TRACON
Wed 05:37:03 PM 40.7833 -74.1000 30° Northeast 247 284 3,500 2,000 Climbing New York TRACON
Wed 05:38:03 PM 40.8333 -74.0333 45° Northeast 285 328 5,900 2,106 Climbing New York TRACON
Wed 05:40:31 PM 40.9450 -73.8122 56° Northeast 327 376 10,800 1,739 Climbing Boston Center
Wed 05:41:30 PM 41.0292 -73.7369 34° Northeast 346 398 11,900 1,073 Climbing Boston Center
Wed 05:42:34 PM 41.1153 -73.6569 35° Northeast 376 433 13,000 1,033 Climbing Boston Center
Wed 05:43:32 PM 41.2047 -73.5739 35° Northeast 391 450 14,000 1,131 Climbing Boston Center
Wed 05:44:36 PM 41.3039 -73.4811 35° Northeast 404 465 15,300 1,258 Climbing Boston Center
Wed 05:45:36 PM 41.3961 -73.3939 35° Northeast 408 470 16,600 1,240 Climbing Boston Center
Wed 05:46:37 PM 41.4925 -73.2997 36° Northeast 419 482 17,800 885 Climbing Boston Center
Wed 05:47:38 PM 41.5772 -73.1875 45° Northeast 430 495 18,400 744 Climbing Boston Center
Wed 05:48:38 PM 41.6631 -73.1228 29° Northeast 410 472 19,300 934 Climbing Boston Center
Wed 05:49:40 PM 41.7678 -73.1300 357° North 380 437 20,300 823 Climbing Boston Center
Wed 05:50:42 PM 41.8719 -73.1475 353° North 377 434 21,000 341 Climbing Boston Center
Wed 05:51:43 PM 42.0044 -73.1708 353° North 399 459 21,000  Level Boston Center
Wed 05:52:43 PM 42.1142 -73.1892 353° North 399 459 21,000  Level Boston Center
Wed 05:53:45 PM 42.2267 -73.1517 14° North 435 501 21,000  Level Boston Center
Wed 05:54:44 PM 42.3153 -73.0256 46° Northeast 470 541 21,000  Level Boston Center
Wed 05:55:45 PM 42.4022 -72.8869 50° Northeast 472 543 21,000  Level Boston Center
Wed 05:56:46 PM 42.4872 -72.7542 49° Northeast 468 539 21,000  Level Boston Center
Wed 05:57:49 PM 42.5731 -72.6139 50° Northeast 479 551 21,000  Level Boston Center
Wed 05:58:48 PM 42.6519 -72.4858 50° Northeast 479 551 21,000  Level Boston Center
Wed 05:59:52 PM 42.7547 -72.3197 50° Northeast 479 551 21,000  Level Boston Center
Wed 06:00:51 PM 42.8364 -72.1856 50° Northeast 480 552 21,000  Level Boston Center
Wed 06:01:54 PM 42.9206 -72.0461 50° Northeast 479 551 21,000  Level Boston Center
Wed 06:02:55 PM 43.0053 -71.9069 50° Northeast 478 550 21,000  Level Boston Center
Wed 06:03:56 PM 43.0903 -71.7656 51° Northeast 482 555 21,000 -744 Level Boston Center
Wed 06:04:56 PM 43.1753 -71.6261 50° Northeast 480 552 19,500 -2,033 Descending Boston Center
Wed 06:05:57 PM 43.2675 -71.4703 51° Northeast 468 539 16,900 -2,780 Descending Boston Center
Wed 06:06:59 PM 43.3444 -71.3408 51° Northeast 442 509 13,800 -2,754 Descending Boston Center
Wed 06:07:59 PM 43.4217 -71.2103 51° Northeast 414 476 11,300 -1,388 Descending Boston Center
Wed 06:09:00 PM 43.4792 -71.0864 57° Northeast 392 451 11,000 -145 Descending Boston Center
Wed 06:10:03 PM 43.5175 -70.9403 70° East 406 467 11,000 -393 Level Boston Center
Wed 06:11:02 PM 43.5369 -70.8047 79° East 357 411 10,200 -1,180 Descending Boston Center
Wed 06:12:05 PM 43.5306 -70.6717 94° East 331 381 8,600 -1,463 Descending Boston Center
Wed 06:13:05 PM 43.5244 -70.5522 94° East 316 364 7,200 -1,350 Descending Boston Center
Wed 06:14:05 PM 43.5186 -70.4411 94° East 295 339 5,900 -1,258 Descending Boston Center
Wed 06:15:09 PM 43.5247 -70.3397 85° East 248 285 4,600 -1,258 Descending Boston Center
Wed 06:16:09 PM 43.5397 -70.2517 77° East 239 275 3,300 -1,180 Descending Boston Center
Wed 06:17:11 PM 43.5844 -70.2242 24° Northeast 191 220 2,200 -1,033 Descending Boston Center
Wed 06:18:11 PM 43.6247 -70.2414 343° North 148 170 1,200 -836 Descending Boston Center
Wed 06:19:13 PM 43.6444 -70.2761 308° West 119 137 500 -537 Descending Boston Center
Wed 06:20:14 PM 43.6456 -70.3211 272° West 119 137 100 -393 Descending Boston Center
Wed 06:22:00 PM 43.6456 -70.3086 340° North  Level Estimated

Login

Don't have an account? Register now (free) for customized features, flight alerts, and more!